sensor_id;sensor_type;location;lat;lon;timestamp;P1;durP1;ratioP1;P2;durP2;ratioP2
1603;SDS011;795;49.296;11.348;2023-06-22T00:00:02;16.80;;;15.00;;
1603;SDS011;795;49.296;11.348;2023-06-22T00:02:36;15.70;;;14.20;;
1603;SDS011;795;49.296;11.348;2023-06-22T00:05:04;18.60;;;14.40;;
1603;SDS011;795;49.296;11.348;2023-06-22T00:07:31;16.27;;;14.33;;
1603;SDS011;795;49.296;11.348;2023-06-22T00:09:58;19.00;;;14.30;;
1603;SDS011;795;49.296;11.348;2023-06-22T00:12:25;16.63;;;15.00;;
1603;SDS011;795;49.296;11.348;2023-06-22T00:14:52;18.10;;;15.47;;
1603;SDS011;795;49.296;11.348;2023-06-22T00:17:19;16.70;;;15.10;;
1603;SDS011;795;49.296;11.348;2023-06-22T00:19:49;16.13;;;14.40;;
1603;SDS011;795;49.296;11.348;2023-06-22T00:22:19;18.10;;;15.93;;
1603;SDS011;795;49.296;11.348;2023-06-22T00:24:55;15.20;;;13.67;;
1603;SDS011;795;49.296;11.348;2023-06-22T00:27:22;16.07;;;14.47;;
1603;SDS011;795;49.296;11.348;2023-06-22T00:29:49;18.83;;;15.50;;
1603;SDS011;795;49.296;11.348;2023-06-22T00:32:16;16.03;;;14.17;;
1603;SDS011;795;49.296;11.348;2023-06-22T00:34:44;17.03;;;14.17;;
1603;SDS011;795;49.296;11.348;2023-06-22T00:37:11;16.03;;;13.23;;
1603;SDS011;795;49.296;11.348;2023-06-22T00:39:38;16.90;;;14.57;;
1603;SDS011;795;49.296;11.348;2023-06-22T00:42:05;17.97;;;16.20;;
1603;SDS011;795;49.296;11.348;2023-06-22T00:44:33;23.10;;;14.23;;
1603;SDS011;795;49.296;11.348;2023-06-22T00:47:00;19.77;;;14.70;;
1603;SDS011;795;49.296;11.348;2023-06-22T00:49:29;20.40;;;14.60;;
1603;SDS011;795;49.296;11.348;2023-06-22T00:51:57;16.13;;;14.43;;
1603;SDS011;795;49.296;11.348;2023-06-22T00:54:24;16.93;;;15.30;;
1603;SDS011;795;49.296;11.348;2023-06-22T00:56:52;15.97;;;14.47;;
1603;SDS011;795;49.296;11.348;2023-06-22T00:59:22;16.57;;;13.03;;
1603;SDS011;795;49.296;11.348;2023-06-22T01:01:52;15.03;;;13.60;;
1603;SDS011;795;49.296;11.348;2023-06-22T01:04:19;15.90;;;14.30;;
1603;SDS011;795;49.296;11.348;2023-06-22T01:06:51;14.90;;;13.33;;
1603;SDS011;795;49.296;11.348;2023-06-22T01:10:03;16.77;;;13.50;;
1603;SDS011;795;49.296;11.348;2023-06-22T01:12:52;14.53;;;13.03;;
1603;SDS011;795;49.296;11.348;2023-06-22T01:15:31;14.40;;;13.00;;
1603;SDS011;795;49.296;11.348;2023-06-22T01:18:16;15.47;;;13.87;;
1603;SDS011;795;49.296;11.348;2023-06-22T01:20:47;18.27;;;12.93;;
1603;SDS011;795;49.296;11.348;2023-06-22T01:26:06;14.03;;;12.70;;
1603;SDS011;795;49.296;11.348;2023-06-22T01:29:01;14.20;;;12.30;;
1603;SDS011;795;49.296;11.348;2023-06-22T01:31:34;16.50;;;13.67;;
1603;SDS011;795;49.296;11.348;2023-06-22T01:34:03;16.30;;;13.93;;
1603;SDS011;795;49.296;11.348;2023-06-22T01:36:34;15.50;;;14.10;;
1603;SDS011;795;49.296;11.348;2023-06-22T01:39:04;15.03;;;13.43;;
1603;SDS011;795;49.296;11.348;2023-06-22T01:41:34;17.93;;;12.43;;
1603;SDS011;795;49.296;11.348;2023-06-22T01:44:05;16.93;;;12.17;;
1603;SDS011;795;49.296;11.348;2023-06-22T01:46:35;13.73;;;12.50;;
1603;SDS011;795;49.296;11.348;2023-06-22T01:49:04;13.13;;;11.73;;
1603;SDS011;795;49.296;11.348;2023-06-22T01:51:32;13.47;;;12.07;;
1603;SDS011;795;49.296;11.348;2023-06-22T01:54:00;14.43;;;12.47;;
1603;SDS011;795;49.296;11.348;2023-06-22T01:56:28;13.40;;;12.20;;
1603;SDS011;795;49.296;11.348;2023-06-22T02:01:57;15.33;;;13.70;;
1603;SDS011;795;49.296;11.348;2023-06-22T02:04:39;14.13;;;12.27;;
1603;SDS011;795;49.296;11.348;2023-06-22T02:07:21;15.20;;;13.70;;
1603;SDS011;795;49.296;11.348;2023-06-22T02:09:55;13.10;;;11.87;;
1603;SDS011;795;49.296;11.348;2023-06-22T02:12:26;13.77;;;12.37;;
1603;SDS011;795;49.296;11.348;2023-06-22T02:14:57;13.70;;;12.30;;
1603;SDS011;795;49.296;11.348;2023-06-22T02:17:27;15.60;;;12.77;;
1603;SDS011;795;49.296;11.348;2023-06-22T02:20:00;14.27;;;12.77;;
1603;SDS011;795;49.296;11.348;2023-06-22T02:22:34;14.93;;;12.77;;
1603;SDS011;795;49.296;11.348;2023-06-22T02:25:01;13.47;;;12.17;;
1603;SDS011;795;49.296;11.348;2023-06-22T02:27:28;13.40;;;12.20;;
1603;SDS011;795;49.296;11.348;2023-06-22T02:29:56;14.17;;;12.73;;
1603;SDS011;795;49.296;11.348;2023-06-22T02:32:23;17.40;;;13.77;;
1603;SDS011;795;49.296;11.348;2023-06-22T02:34:50;13.73;;;12.43;;
1603;SDS011;795;49.296;11.348;2023-06-22T02:37:19;14.13;;;12.63;;
1603;SDS011;795;49.296;11.348;2023-06-22T02:39:46;15.40;;;13.83;;
1603;SDS011;795;49.296;11.348;2023-06-22T02:42:13;14.70;;;13.30;;
1603;SDS011;795;49.296;11.348;2023-06-22T02:44:41;15.60;;;14.00;;
1603;SDS011;795;49.296;11.348;2023-06-22T02:47:08;16.43;;;14.87;;
1603;SDS011;795;49.296;11.348;2023-06-22T02:49:35;18.13;;;14.90;;
1603;SDS011;795;49.296;11.348;2023-06-22T02:52:02;16.30;;;14.60;;
1603;SDS011;795;49.296;11.348;2023-06-22T02:54:30;16.40;;;14.83;;
1603;SDS011;795;49.296;11.348;2023-06-22T02:56:57;15.90;;;14.30;;
1603;SDS011;795;49.296;11.348;2023-06-22T02:59:24;16.47;;;14.80;;
1603;SDS011;795;49.296;11.348;2023-06-22T03:01:51;16.07;;;14.47;;
1603;SDS011;795;49.296;11.348;2023-06-22T03:04:18;16.33;;;14.53;;
1603;SDS011;795;49.296;11.348;2023-06-22T03:06:45;15.83;;;14.33;;
1603;SDS011;795;49.296;11.348;2023-06-22T03:09:17;20.20;;;15.57;;
1603;SDS011;795;49.296;11.348;2023-06-22T03:11:44;15.77;;;14.17;;
1603;SDS011;795;49.296;11.348;2023-06-22T03:14:11;16.03;;;13.50;;
1603;SDS011;795;49.296;11.348;2023-06-22T03:16:38;15.27;;;13.67;;
1603;SDS011;795;49.296;11.348;2023-06-22T03:19:07;17.87;;;13.00;;
1603;SDS011;795;49.296;11.348;2023-06-22T03:21:34;16.33;;;14.63;;
1603;SDS011;795;49.296;11.348;2023-06-22T03:24:01;16.20;;;13.90;;
1603;SDS011;795;49.296;11.348;2023-06-22T03:26:28;15.27;;;13.63;;
1603;SDS011;795;49.296;11.348;2023-06-22T03:28:56;15.53;;;13.13;;
1603;SDS011;795;49.296;11.348;2023-06-22T03:31:22;16.63;;;13.73;;
1603;SDS011;795;49.296;11.348;2023-06-22T03:33:50;13.83;;;12.20;;
1603;SDS011;795;49.296;11.348;2023-06-22T03:36:17;15.00;;;13.60;;
1603;SDS011;795;49.296;11.348;2023-06-22T03:38:46;16.00;;;14.43;;
1603;SDS011;795;49.296;11.348;2023-06-22T03:41:15;16.20;;;14.13;;
1603;SDS011;795;49.296;11.348;2023-06-22T03:43:42;17.33;;;14.20;;
1603;SDS011;795;49.296;11.348;2023-06-22T03:46:09;15.27;;;13.90;;
1603;SDS011;795;49.296;11.348;2023-06-22T03:48:36;15.43;;;13.93;;
1603;SDS011;795;49.296;11.348;2023-06-22T03:51:04;16.77;;;15.03;;
1603;SDS011;795;49.296;11.348;2023-06-22T03:53:31;16.07;;;14.37;;
1603;SDS011;795;49.296;11.348;2023-06-22T03:55:58;21.10;;;15.30;;
1603;SDS011;795;49.296;11.348;2023-06-22T03:58:25;16.33;;;14.83;;
1603;SDS011;795;49.296;11.348;2023-06-22T04:00:52;16.50;;;14.80;;
1603;SDS011;795;49.296;11.348;2023-06-22T04:03:19;15.40;;;13.77;;
1603;SDS011;795;49.296;11.348;2023-06-22T04:05:47;15.43;;;13.93;;
1603;SDS011;795;49.296;11.348;2023-06-22T04:08:14;17.07;;;14.73;;
1603;SDS011;795;49.296;11.348;2023-06-22T04:10:42;19.10;;;15.30;;
1603;SDS011;795;49.296;11.348;2023-06-22T04:13:09;17.10;;;15.43;;
1603;SDS011;795;49.296;11.348;2023-06-22T04:15:36;15.73;;;14.17;;
1603;SDS011;795;49.296;11.348;2023-06-22T04:18:03;16.10;;;14.47;;
1603;SDS011;795;49.296;11.348;2023-06-22T04:20:31;14.60;;;13.30;;
1603;SDS011;795;49.296;11.348;2023-06-22T04:22:59;15.90;;;14.20;;
1603;SDS011;795;49.296;11.348;2023-06-22T04:25:26;17.30;;;15.10;;
1603;SDS011;795;49.296;11.348;2023-06-22T04:27:53;14.60;;;13.20;;
1603;SDS011;795;49.296;11.348;2023-06-22T04:30:20;17.20;;;15.50;;
1603;SDS011;795;49.296;11.348;2023-06-22T04:32:47;17.73;;;14.47;;
1603;SDS011;795;49.296;11.348;2023-06-22T04:35:22;16.40;;;14.70;;
1603;SDS011;795;49.296;11.348;2023-06-22T04:37:50;16.77;;;15.17;;
1603;SDS011;795;49.296;11.348;2023-06-22T04:40:21;17.20;;;14.13;;
1603;SDS011;795;49.296;11.348;2023-06-22T04:42:49;16.27;;;14.50;;
1603;SDS011;795;49.296;11.348;2023-06-22T04:45:20;14.60;;;13.30;;
1603;SDS011;795;49.296;11.348;2023-06-22T04:47:48;15.47;;;14.07;;
1603;SDS011;795;49.296;11.348;2023-06-22T04:50:15;18.17;;;14.57;;
1603;SDS011;795;49.296;11.348;2023-06-22T04:52:43;17.70;;;16.00;;
1603;SDS011;795;49.296;11.348;2023-06-22T04:55:11;17.20;;;15.40;;
1603;SDS011;795;49.296;11.348;2023-06-22T04:57:41;17.23;;;15.37;;
1603;SDS011;795;49.296;11.348;2023-06-22T05:00:15;18.57;;;14.53;;
1603;SDS011;795;49.296;11.348;2023-06-22T05:02:46;22.33;;;14.10;;
1603;SDS011;795;49.296;11.348;2023-06-22T05:05:13;21.40;;;15.60;;
1603;SDS011;795;49.296;11.348;2023-06-22T05:07:42;19.73;;;15.67;;
1603;SDS011;795;49.296;11.348;2023-06-22T05:10:16;14.77;;;13.10;;
1603;SDS011;795;49.296;11.348;2023-06-22T05:12:43;18.93;;;14.63;;
1603;SDS011;795;49.296;11.348;2023-06-22T05:15:12;17.67;;;14.27;;
1603;SDS011;795;49.296;11.348;2023-06-22T05:17:39;15.53;;;13.70;;
1603;SDS011;795;49.296;11.348;2023-06-22T05:20:10;15.37;;;13.70;;
1603;SDS011;795;49.296;11.348;2023-06-22T05:22:39;13.20;;;11.90;;
1603;SDS011;795;49.296;11.348;2023-06-22T05:25:08;15.30;;;13.90;;
1603;SDS011;795;49.296;11.348;2023-06-22T05:27:37;14.83;;;12.67;;
1603;SDS011;795;49.296;11.348;2023-06-22T05:30:08;13.60;;;12.30;;
1603;SDS011;795;49.296;11.348;2023-06-22T05:32:37;13.83;;;12.60;;
1603;SDS011;795;49.296;11.348;2023-06-22T05:35:04;11.27;;;10.27;;
1603;SDS011;795;49.296;11.348;2023-06-22T05:37:32;13.50;;;12.30;;
1603;SDS011;795;49.296;11.348;2023-06-22T05:39:59;13.03;;;11.73;;
1603;SDS011;795;49.296;11.348;2023-06-22T05:42:26;12.67;;;10.80;;
1603;SDS011;795;49.296;11.348;2023-06-22T05:44:53;10.70;;;9.77;;
1603;SDS011;795;49.296;11.348;2023-06-22T05:47:20;11.27;;;10.27;;
1603;SDS011;795;49.296;11.348;2023-06-22T05:49:48;12.43;;;10.50;;
1603;SDS011;795;49.296;11.348;2023-06-22T05:52:16;11.33;;;9.67;;
1603;SDS011;795;49.296;11.348;2023-06-22T05:54:43;11.10;;;9.33;;
1603;SDS011;795;49.296;11.348;2023-06-22T05:57:10;13.07;;;10.10;;
1603;SDS011;795;49.296;11.348;2023-06-22T05:59:37;14.80;;;10.80;;
1603;SDS011;795;49.296;11.348;2023-06-22T06:02:04;11.27;;;10.20;;
1603;SDS011;795;49.296;11.348;2023-06-22T06:04:31;11.03;;;9.93;;
1603;SDS011;795;49.296;11.348;2023-06-22T06:06:58;10.43;;;9.47;;
1603;SDS011;795;49.296;11.348;2023-06-22T06:09:25;10.30;;;9.40;;
1603;SDS011;795;49.296;11.348;2023-06-22T06:11:52;10.60;;;9.30;;
1603;SDS011;795;49.296;11.348;2023-06-22T06:14:19;10.10;;;9.10;;
1603;SDS011;795;49.296;11.348;2023-06-22T06:16:48;10.33;;;9.00;;
1603;SDS011;795;49.296;11.348;2023-06-22T06:19:15;10.00;;;9.20;;
1603;SDS011;795;49.296;11.348;2023-06-22T06:21:42;22.37;;;8.90;;
1603;SDS011;795;49.296;11.348;2023-06-22T06:24:09;9.93;;;8.93;;
1603;SDS011;795;49.296;11.348;2023-06-22T06:26:36;9.53;;;8.53;;
1603;SDS011;795;49.296;11.348;2023-06-22T06:29:05;9.30;;;8.37;;
1603;SDS011;795;49.296;11.348;2023-06-22T06:31:32;10.47;;;9.40;;
1603;SDS011;795;49.296;11.348;2023-06-22T06:33:59;9.33;;;8.17;;
1603;SDS011;795;49.296;11.348;2023-06-22T06:36:26;11.10;;;8.50;;
1603;SDS011;795;49.296;11.348;2023-06-22T06:38:53;10.23;;;8.93;;
1603;SDS011;795;49.296;11.348;2023-06-22T06:41:20;9.53;;;8.73;;
1603;SDS011;795;49.296;11.348;2023-06-22T06:43:47;11.33;;;8.07;;
1603;SDS011;795;49.296;11.348;2023-06-22T06:46:14;9.60;;;8.70;;
1603;SDS011;795;49.296;11.348;2023-06-22T06:48:41;9.53;;;8.40;;
1603;SDS011;795;49.296;11.348;2023-06-22T06:51:08;8.77;;;7.90;;
1603;SDS011;795;49.296;11.348;2023-06-22T06:53:37;9.73;;;8.00;;
1603;SDS011;795;49.296;11.348;2023-06-22T06:56:04;9.77;;;8.77;;
1603;SDS011;795;49.296;11.348;2023-06-22T06:58:31;8.37;;;7.53;;
1603;SDS011;795;49.296;11.348;2023-06-22T07:00:59;8.23;;;7.43;;
1603;SDS011;795;49.296;11.348;2023-06-22T07:03:26;8.30;;;7.50;;
1603;SDS011;795;49.296;11.348;2023-06-22T07:05:53;9.83;;;8.87;;
1603;SDS011;795;49.296;11.348;2023-06-22T07:08:20;11.70;;;8.30;;
1603;SDS011;795;49.296;11.348;2023-06-22T07:10:47;9.07;;;8.13;;
1603;SDS011;795;49.296;11.348;2023-06-22T07:13:14;7.70;;;6.90;;
1603;SDS011;795;49.296;11.348;2023-06-22T07:15:40;8.53;;;6.80;;
1603;SDS011;795;49.296;11.348;2023-06-22T07:18:08;9.70;;;7.10;;
1603;SDS011;795;49.296;11.348;2023-06-22T07:20:35;7.37;;;6.77;;
1603;SDS011;795;49.296;11.348;2023-06-22T07:23:02;7.50;;;6.80;;
1603;SDS011;795;49.296;11.348;2023-06-22T07:25:29;7.13;;;6.50;;
1603;SDS011;795;49.296;11.348;2023-06-22T07:30:32;10.13;;;7.00;;
1603;SDS011;795;49.296;11.348;2023-06-22T07:33:00;6.90;;;6.20;;
1603;SDS011;795;49.296;11.348;2023-06-22T07:35:30;7.00;;;6.23;;
1603;SDS011;795;49.296;11.348;2023-06-22T07:37:57;7.13;;;6.20;;
1603;SDS011;795;49.296;11.348;2023-06-22T07:40:26;6.47;;;5.93;;
1603;SDS011;795;49.296;11.348;2023-06-22T07:42:54;7.97;;;7.17;;
1603;SDS011;795;49.296;11.348;2023-06-22T07:45:21;7.97;;;7.23;;
1603;SDS011;795;49.296;11.348;2023-06-22T07:47:48;7.60;;;7.00;;
1603;SDS011;795;49.296;11.348;2023-06-22T07:50:16;7.73;;;6.70;;
1603;SDS011;795;49.296;11.348;2023-06-22T07:52:43;9.37;;;6.80;;
1603;SDS011;795;49.296;11.348;2023-06-22T07:55:10;6.80;;;6.20;;
1603;SDS011;795;49.296;11.348;2023-06-22T07:57:37;6.97;;;5.77;;
1603;SDS011;795;49.296;11.348;2023-06-22T08:00:05;7.53;;;5.90;;
1603;SDS011;795;49.296;11.348;2023-06-22T08:03:50;6.93;;;6.30;;
1603;SDS011;795;49.296;11.348;2023-06-22T08:06:17;6.53;;;5.93;;
1603;SDS011;795;49.296;11.348;2023-06-22T08:08:44;6.53;;;5.93;;
1603;SDS011;795;49.296;11.348;2023-06-22T08:11:14;6.73;;;5.87;;
1603;SDS011;795;49.296;11.348;2023-06-22T08:13:41;6.00;;;5.10;;
1603;SDS011;795;49.296;11.348;2023-06-22T08:16:08;7.47;;;5.73;;
1603;SDS011;795;49.296;11.348;2023-06-22T08:18:35;11.00;;;5.50;;
1603;SDS011;795;49.296;11.348;2023-06-22T08:21:02;9.00;;;6.10;;
1603;SDS011;795;49.296;11.348;2023-06-22T08:23:31;6.37;;;5.90;;
1603;SDS011;795;49.296;11.348;2023-06-22T08:25:58;11.13;;;6.57;;
1603;SDS011;795;49.296;11.348;2023-06-22T08:28:25;10.97;;;6.00;;
1603;SDS011;795;49.296;11.348;2023-06-22T08:30:52;7.87;;;5.33;;
1603;SDS011;795;49.296;11.348;2023-06-22T08:33:21;10.90;;;5.57;;
1603;SDS011;795;49.296;11.348;2023-06-22T08:35:55;7.77;;;6.23;;
1603;SDS011;795;49.296;11.348;2023-06-22T08:38:22;5.73;;;5.13;;
1603;SDS011;795;49.296;11.348;2023-06-22T08:40:49;7.20;;;5.13;;
1603;SDS011;795;49.296;11.348;2023-06-22T08:43:16;8.23;;;5.63;;
1603;SDS011;795;49.296;11.348;2023-06-22T08:45:43;9.00;;;5.90;;
1603;SDS011;795;49.296;11.348;2023-06-22T08:48:10;9.60;;;6.03;;
1603;SDS011;795;49.296;11.348;2023-06-22T08:50:37;10.30;;;6.60;;
1603;SDS011;795;49.296;11.348;2023-06-22T08:53:06;7.57;;;5.63;;
1603;SDS011;795;49.296;11.348;2023-06-22T08:55:33;9.17;;;5.23;;
1603;SDS011;795;49.296;11.348;2023-06-22T08:58:01;7.07;;;5.00;;
1603;SDS011;795;49.296;11.348;2023-06-22T09:00:31;6.60;;;6.00;;
1603;SDS011;795;49.296;11.348;2023-06-22T09:03:01;8.50;;;5.50;;
1603;SDS011;795;49.296;11.348;2023-06-22T09:05:29;6.10;;;5.47;;
1603;SDS011;795;49.296;11.348;2023-06-22T09:07:57;10.00;;;5.70;;
1603;SDS011;795;49.296;11.348;2023-06-22T09:10:25;11.53;;;5.63;;
1603;SDS011;795;49.296;11.348;2023-06-22T09:12:53;6.07;;;5.47;;
1603;SDS011;795;49.296;11.348;2023-06-22T09:15:20;8.37;;;6.40;;
1603;SDS011;795;49.296;11.348;2023-06-22T09:17:47;7.63;;;4.93;;
1603;SDS011;795;49.296;11.348;2023-06-22T09:20:14;7.50;;;6.23;;
1603;SDS011;795;49.296;11.348;2023-06-22T09:22:42;8.70;;;5.70;;
1603;SDS011;795;49.296;11.348;2023-06-22T09:25:09;9.00;;;6.03;;
1603;SDS011;795;49.296;11.348;2023-06-22T09:27:36;11.30;;;5.70;;
1603;SDS011;795;49.296;11.348;2023-06-22T09:30:05;7.63;;;5.90;;
1603;SDS011;795;49.296;11.348;2023-06-22T09:32:33;8.30;;;5.40;;
1603;SDS011;795;49.296;11.348;2023-06-22T09:35:03;9.40;;;5.27;;
1603;SDS011;795;49.296;11.348;2023-06-22T09:37:32;6.43;;;5.77;;
1603;SDS011;795;49.296;11.348;2023-06-22T09:40:00;10.83;;;5.63;;
1603;SDS011;795;49.296;11.348;2023-06-22T09:42:27;10.37;;;6.40;;
1603;SDS011;795;49.296;11.348;2023-06-22T09:44:54;8.00;;;5.93;;
1603;SDS011;795;49.296;11.348;2023-06-22T09:47:21;6.83;;;5.60;;
1603;SDS011;795;49.296;11.348;2023-06-22T09:49:49;10.57;;;6.60;;
1603;SDS011;795;49.296;11.348;2023-06-22T09:52:17;10.13;;;5.87;;
1603;SDS011;795;49.296;11.348;2023-06-22T09:54:44;7.87;;;5.63;;
1603;SDS011;795;49.296;11.348;2023-06-22T09:57:11;9.40;;;5.50;;
1603;SDS011;795;49.296;11.348;2023-06-22T09:59:38;8.27;;;6.70;;
1603;SDS011;795;49.296;11.348;2023-06-22T10:02:07;7.20;;;5.17;;
1603;SDS011;795;49.296;11.348;2023-06-22T10:04:35;6.93;;;6.00;;
1603;SDS011;795;49.296;11.348;2023-06-22T10:07:03;7.90;;;6.30;;
1603;SDS011;795;49.296;11.348;2023-06-22T10:09:30;9.73;;;6.00;;
1603;SDS011;795;49.296;11.348;2023-06-22T10:11:58;11.83;;;5.20;;
1603;SDS011;795;49.296;11.348;2023-06-22T10:14:25;9.70;;;6.13;;
1603;SDS011;795;49.296;11.348;2023-06-22T10:16:53;7.90;;;6.20;;
1603;SDS011;795;49.296;11.348;2023-06-22T10:19:22;8.70;;;6.10;;
1603;SDS011;795;49.296;11.348;2023-06-22T10:21:49;8.17;;;5.80;;
1603;SDS011;795;49.296;11.348;2023-06-22T10:24:16;12.00;;;6.00;;
1603;SDS011;795;49.296;11.348;2023-06-22T10:26:43;10.60;;;6.40;;
1603;SDS011;795;49.296;11.348;2023-06-22T10:29:10;12.17;;;5.60;;
1603;SDS011;795;49.296;11.348;2023-06-22T10:31:42;6.27;;;5.67;;
1603;SDS011;795;49.296;11.348;2023-06-22T10:34:09;10.03;;;6.30;;
1603;SDS011;795;49.296;11.348;2023-06-22T10:36:37;7.27;;;5.80;;
1603;SDS011;795;49.296;11.348;2023-06-22T10:39:05;8.83;;;6.30;;
1603;SDS011;795;49.296;11.348;2023-06-22T10:41:32;8.77;;;5.70;;
1603;SDS011;795;49.296;11.348;2023-06-22T10:43:59;9.17;;;6.30;;
1603;SDS011;795;49.296;11.348;2023-06-22T10:46:26;9.23;;;5.70;;
1603;SDS011;795;49.296;11.348;2023-06-22T10:48:53;7.97;;;6.83;;
1603;SDS011;795;49.296;11.348;2023-06-22T10:51:23;8.53;;;5.73;;
1603;SDS011;795;49.296;11.348;2023-06-22T10:53:50;7.57;;;6.10;;
1603;SDS011;795;49.296;11.348;2023-06-22T10:56:17;8.20;;;5.83;;
1603;SDS011;795;49.296;11.348;2023-06-22T10:58:45;8.43;;;6.00;;
1603;SDS011;795;49.296;11.348;2023-06-22T11:01:12;9.40;;;5.77;;
1603;SDS011;795;49.296;11.348;2023-06-22T11:04:00;19.70;;;6.30;;
1603;SDS011;795;49.296;11.348;2023-06-22T11:06:27;8.17;;;6.30;;
1603;SDS011;795;49.296;11.348;2023-06-22T11:08:54;8.67;;;6.10;;
1603;SDS011;795;49.296;11.348;2023-06-22T11:11:41;11.90;;;6.80;;
1603;SDS011;795;49.296;11.348;2023-06-22T11:14:08;9.40;;;5.77;;
1603;SDS011;795;49.296;11.348;2023-06-22T11:16:35;6.90;;;5.97;;
1603;SDS011;795;49.296;11.348;2023-06-22T11:19:02;9.03;;;6.57;;
1603;SDS011;795;49.296;11.348;2023-06-22T11:21:31;8.63;;;6.23;;
1603;SDS011;795;49.296;11.348;2023-06-22T11:23:59;11.53;;;7.27;;
1603;SDS011;795;49.296;11.348;2023-06-22T11:26:26;10.70;;;6.57;;
1603;SDS011;795;49.296;11.348;2023-06-22T11:28:53;14.30;;;7.00;;
1603;SDS011;795;49.296;11.348;2023-06-22T11:31:20;8.37;;;6.40;;
1603;SDS011;795;49.296;11.348;2023-06-22T11:33:52;7.97;;;6.40;;
1603;SDS011;795;49.296;11.348;2023-06-22T11:36:19;9.43;;;5.50;;
1603;SDS011;795;49.296;11.348;2023-06-22T11:38:46;8.83;;;5.93;;
1603;SDS011;795;49.296;11.348;2023-06-22T11:41:13;9.17;;;6.20;;
1603;SDS011;795;49.296;11.348;2023-06-22T11:43:40;11.97;;;7.20;;
1603;SDS011;795;49.296;11.348;2023-06-22T11:46:07;10.23;;;7.00;;
1603;SDS011;795;49.296;11.348;2023-06-22T11:48:35;8.43;;;6.23;;
1603;SDS011;795;49.296;11.348;2023-06-22T11:51:02;9.37;;;6.07;;
1603;SDS011;795;49.296;11.348;2023-06-22T11:53:29;7.83;;;6.27;;
1603;SDS011;795;49.296;11.348;2023-06-22T11:55:57;10.60;;;7.97;;
1603;SDS011;795;49.296;11.348;2023-06-22T11:58:24;8.43;;;6.70;;
1603;SDS011;795;49.296;11.348;2023-06-22T12:00:51;9.60;;;7.30;;
1603;SDS011;795;49.296;11.348;2023-06-22T12:03:19;10.50;;;7.17;;
1603;SDS011;795;49.296;11.348;2023-06-22T12:05:50;10.67;;;6.50;;
1603;SDS011;795;49.296;11.348;2023-06-22T12:08:18;11.57;;;7.33;;
1603;SDS011;795;49.296;11.348;2023-06-22T12:10:46;9.13;;;6.13;;
1603;SDS011;795;49.296;11.348;2023-06-22T12:13:13;8.87;;;5.87;;
1603;SDS011;795;49.296;11.348;2023-06-22T12:15:40;14.80;;;6.60;;
1603;SDS011;795;49.296;11.348;2023-06-22T12:18:07;6.60;;;5.90;;
1603;SDS011;795;49.296;11.348;2023-06-22T12:20:35;7.40;;;6.60;;
1603;SDS011;795;49.296;11.348;2023-06-22T12:23:02;16.70;;;8.23;;
1603;SDS011;795;49.296;11.348;2023-06-22T12:25:29;14.40;;;7.07;;
1603;SDS011;795;49.296;11.348;2023-06-22T12:27:56;10.43;;;6.63;;
1603;SDS011;795;49.296;11.348;2023-06-22T12:30:23;8.07;;;6.57;;
1603;SDS011;795;49.296;11.348;2023-06-22T12:32:51;7.53;;;5.53;;
1603;SDS011;795;49.296;11.348;2023-06-22T12:35:21;8.40;;;5.97;;
1603;SDS011;795;49.296;11.348;2023-06-22T12:37:48;8.53;;;6.17;;
1603;SDS011;795;49.296;11.348;2023-06-22T12:40:16;11.50;;;5.83;;
1603;SDS011;795;49.296;11.348;2023-06-22T12:42:44;12.93;;;5.87;;
1603;SDS011;795;49.296;11.348;2023-06-22T12:45:14;7.70;;;5.77;;
1603;SDS011;795;49.296;11.348;2023-06-22T12:47:41;7.13;;;5.27;;
1603;SDS011;795;49.296;11.348;2023-06-22T12:50:10;12.33;;;6.83;;
1603;SDS011;795;49.296;11.348;2023-06-22T12:52:40;10.20;;;6.17;;
1603;SDS011;795;49.296;11.348;2023-06-22T12:55:07;12.77;;;6.00;;
1603;SDS011;795;49.296;11.348;2023-06-22T12:57:35;13.50;;;6.30;;
1603;SDS011;795;49.296;11.348;2023-06-22T13:00:02;15.10;;;4.87;;
1603;SDS011;795;49.296;11.348;2023-06-22T13:02:31;15.60;;;6.60;;
1603;SDS011;795;49.296;11.348;2023-06-22T13:04:58;7.67;;;5.27;;
1603;SDS011;795;49.296;11.348;2023-06-22T13:07:25;8.10;;;5.20;;
1603;SDS011;795;49.296;11.348;2023-06-22T13:09:52;9.40;;;4.73;;
1603;SDS011;795;49.296;11.348;2023-06-22T13:12:20;9.90;;;5.77;;
1603;SDS011;795;49.296;11.348;2023-06-22T13:14:47;12.40;;;5.67;;
1603;SDS011;795;49.296;11.348;2023-06-22T13:17:15;18.93;;;6.20;;
1603;SDS011;795;49.296;11.348;2023-06-22T13:19:42;9.43;;;5.60;;
1603;SDS011;795;49.296;11.348;2023-06-22T13:22:31;9.87;;;5.30;;
1603;SDS011;795;49.296;11.348;2023-06-22T13:25:06;8.43;;;5.27;;
1603;SDS011;795;49.296;11.348;2023-06-22T13:27:38;10.20;;;5.30;;
1603;SDS011;795;49.296;11.348;2023-06-22T13:30:09;10.13;;;5.00;;
1603;SDS011;795;49.296;11.348;2023-06-22T13:32:40;18.87;;;5.50;;
1603;SDS011;795;49.296;11.348;2023-06-22T13:35:09;7.00;;;5.03;;
1603;SDS011;795;49.296;11.348;2023-06-22T13:37:37;9.17;;;6.00;;
1603;SDS011;795;49.296;11.348;2023-06-22T13:40:05;15.50;;;6.70;;
1603;SDS011;795;49.296;11.348;2023-06-22T13:42:34;8.40;;;5.37;;
1603;SDS011;795;49.296;11.348;2023-06-22T13:45:02;14.23;;;5.80;;
1603;SDS011;795;49.296;11.348;2023-06-22T13:47:31;6.90;;;5.03;;
1603;SDS011;795;49.296;11.348;2023-06-22T13:49:58;10.43;;;5.03;;
1603;SDS011;795;49.296;11.348;2023-06-22T13:52:25;13.67;;;6.23;;
1603;SDS011;795;49.296;11.348;2023-06-22T13:54:53;12.23;;;5.47;;
1603;SDS011;795;49.296;11.348;2023-06-22T13:57:20;10.93;;;5.70;;
1603;SDS011;795;49.296;11.348;2023-06-22T13:59:47;8.90;;;5.83;;
1603;SDS011;795;49.296;11.348;2023-06-22T14:02:14;11.47;;;6.07;;
1603;SDS011;795;49.296;11.348;2023-06-22T14:04:41;10.40;;;5.77;;
1603;SDS011;795;49.296;11.348;2023-06-22T14:07:08;9.70;;;5.23;;
1603;SDS011;795;49.296;11.348;2023-06-22T14:09:35;10.50;;;4.87;;
1603;SDS011;795;49.296;11.348;2023-06-22T14:12:03;8.50;;;5.00;;
1603;SDS011;795;49.296;11.348;2023-06-22T14:14:33;12.43;;;4.93;;
1603;SDS011;795;49.296;11.348;2023-06-22T14:17:00;13.40;;;5.70;;
1603;SDS011;795;49.296;11.348;2023-06-22T14:19:27;10.30;;;5.40;;
1603;SDS011;795;49.296;11.348;2023-06-22T14:21:54;9.43;;;5.40;;
1603;SDS011;795;49.296;11.348;2023-06-22T14:24:22;11.77;;;5.80;;
1603;SDS011;795;49.296;11.348;2023-06-22T14:26:53;15.10;;;6.07;;
1603;SDS011;795;49.296;11.348;2023-06-22T14:29:22;15.50;;;6.70;;
1603;SDS011;795;49.296;11.348;2023-06-22T14:31:49;11.93;;;5.03;;
1603;SDS011;795;49.296;11.348;2023-06-22T14:34:16;12.00;;;6.37;;
1603;SDS011;795;49.296;11.348;2023-06-22T14:36:43;13.57;;;7.10;;
1603;SDS011;795;49.296;11.348;2023-06-22T14:39:10;8.73;;;5.80;;
1603;SDS011;795;49.296;11.348;2023-06-22T14:41:37;9.47;;;5.47;;
1603;SDS011;795;49.296;11.348;2023-06-22T14:44:04;8.47;;;5.87;;
1603;SDS011;795;49.296;11.348;2023-06-22T14:46:31;9.73;;;5.27;;
1603;SDS011;795;49.296;11.348;2023-06-22T14:48:58;14.93;;;6.67;;
1603;SDS011;795;49.296;11.348;2023-06-22T14:51:25;11.30;;;5.27;;
1603;SDS011;795;49.296;11.348;2023-06-22T14:53:53;9.20;;;5.30;;
1603;SDS011;795;49.296;11.348;2023-06-22T14:56:20;14.23;;;6.50;;
1603;SDS011;795;49.296;11.348;2023-06-22T14:58:47;9.90;;;5.70;;
1603;SDS011;795;49.296;11.348;2023-06-22T15:01:15;15.40;;;6.03;;
1603;SDS011;795;49.296;11.348;2023-06-22T15:03:43;11.13;;;6.60;;
1603;SDS011;795;49.296;11.348;2023-06-22T15:06:11;11.03;;;5.60;;
1603;SDS011;795;49.296;11.348;2023-06-22T15:08:38;10.00;;;5.10;;
1603;SDS011;795;49.296;11.348;2023-06-22T15:11:06;10.80;;;6.23;;
1603;SDS011;795;49.296;11.348;2023-06-22T15:13:34;11.10;;;5.43;;
1603;SDS011;795;49.296;11.348;2023-06-22T15:16:06;16.30;;;6.20;;